sensor_id;sensor_type;location;lat;lon;timestamp;pressure;altitude;pressure_sealevel;temperature;humidity
82311;BME280;72015;51.330;12.316;2024-01-30T00:03:45;101716.28;;;5.62;41.30
82311;BME280;72015;51.330;12.316;2024-01-30T00:08:09;101716.53;;;5.43;41.02
82311;BME280;72015;51.330;12.316;2024-01-30T00:12:33;101717.47;;;5.28;41.13
82311;BME280;72015;51.330;12.316;2024-01-30T00:16:57;101716.78;;;5.23;40.74
82311;BME280;72015;51.330;12.316;2024-01-30T00:21:21;101715.01;;;5.26;39.95
82311;BME280;72015;51.330;12.316;2024-01-30T00:25:45;101714.39;;;5.32;39.57
82311;BME280;72015;51.330;12.316;2024-01-30T00:30:09;101712.70;;;5.30;40.28
82311;BME280;72015;51.330;12.316;2024-01-30T00:34:33;101711.82;;;5.31;40.04
82311;BME280;72015;51.330;12.316;2024-01-30T00:38:57;101710.49;;;5.39;39.29
82311;BME280;72015;51.330;12.316;2024-01-30T00:43:21;101710.13;;;5.47;39.04
82311;BME280;72015;51.330;12.316;2024-01-30T00:47:45;101707.03;;;5.51;38.91
82311;BME280;72015;51.330;12.316;2024-01-30T00:52:09;101703.74;;;5.57;38.89
82311;BME280;72015;51.330;12.316;2024-01-30T00:56:33;101701.08;;;5.56;39.11
82311;BME280;72015;51.330;12.316;2024-01-30T01:00:57;101700.00;;;5.56;38.97
82311;BME280;72015;51.330;12.316;2024-01-30T01:05:21;101698.99;;;5.51;39.32
82311;BME280;72015;51.330;12.316;2024-01-30T01:09:45;101697.47;;;5.37;39.90
82311;BME280;72015;51.330;12.316;2024-01-30T01:14:09;101696.71;;;5.28;39.79
82311;BME280;72015;51.330;12.316;2024-01-30T01:18:33;101695.59;;;5.26;39.21
82311;BME280;72015;51.330;12.316;2024-01-30T01:22:57;101693.88;;;5.23;39.47
82311;BME280;72015;51.330;12.316;2024-01-30T01:27:21;101691.11;;;5.21;39.24
82311;BME280;72015;51.330;12.316;2024-01-30T01:31:45;101688.05;;;5.08;39.87
82311;BME280;72015;51.330;12.316;2024-01-30T01:36:09;101685.96;;;5.01;39.74
82311;BME280;72015;51.330;12.316;2024-01-30T01:40:33;101682.76;;;4.90;40.45
82311;BME280;72015;51.330;12.316;2024-01-30T01:44:57;101680.52;;;4.70;41.16
82311;BME280;72015;51.330;12.316;2024-01-30T01:49:22;101679.96;;;4.55;41.38
82311;BME280;72015;51.330;12.316;2024-01-30T01:53:45;101677.91;;;4.53;40.54
82311;BME280;72015;51.330;12.316;2024-01-30T01:58:09;101676.18;;;4.53;40.36
82311;BME280;72015;51.330;12.316;2024-01-30T02:02:35;101675.45;;;4.54;40.29
82311;BME280;72015;51.330;12.316;2024-01-30T02:06:57;101675.29;;;4.54;40.50
82311;BME280;72015;51.330;12.316;2024-01-30T02:11:21;101674.21;;;4.61;39.98
82311;BME280;72015;51.330;12.316;2024-01-30T02:15:48;101673.22;;;4.69;39.76
82311;BME280;72015;51.330;12.316;2024-01-30T02:20:09;101672.72;;;4.76;39.72
82311;BME280;72015;51.330;12.316;2024-01-30T02:24:33;101671.47;;;4.79;39.93
82311;BME280;72015;51.330;12.316;2024-01-30T02:28:57;101670.48;;;4.80;40.16
82311;BME280;72015;51.330;12.316;2024-01-30T02:33:21;101670.58;;;4.76;40.53
82311;BME280;72015;51.330;12.316;2024-01-30T02:37:45;101670.83;;;4.73;40.42
82311;BME280;72015;51.330;12.316;2024-01-30T02:42:09;101671.97;;;4.64;40.99
82311;BME280;72015;51.330;12.316;2024-01-30T02:46:33;101670.99;;;4.50;41.52
82311;BME280;72015;51.330;12.316;2024-01-30T02:50:57;101670.33;;;4.44;41.06
82311;BME280;72015;51.330;12.316;2024-01-30T02:55:21;101668.66;;;4.45;40.61
82311;BME280;72015;51.330;12.316;2024-01-30T02:59:45;101666.00;;;4.48;40.55
82311;BME280;72015;51.330;12.316;2024-01-30T03:04:09;101664.00;;;4.51;40.33
82311;BME280;72015;51.330;12.316;2024-01-30T03:08:33;101662.81;;;4.49;40.44
82311;BME280;72015;51.330;12.316;2024-01-30T03:12:57;101661.60;;;4.51;40.22
82311;BME280;72015;51.330;12.316;2024-01-30T03:17:21;101659.81;;;4.56;39.73
82311;BME280;72015;51.330;12.316;2024-01-30T03:21:45;101657.76;;;4.64;39.45
82311;BME280;72015;51.330;12.316;2024-01-30T03:26:09;101655.97;;;4.69;39.84
82311;BME280;72015;51.330;12.316;2024-01-30T03:30:34;101653.77;;;4.74;39.67
82311;BME280;72015;51.330;12.316;2024-01-30T03:34:57;101651.20;;;4.82;39.49
82311;BME280;72015;51.330;12.316;2024-01-30T03:39:21;101648.58;;;4.96;38.75
82311;BME280;72015;51.330;12.316;2024-01-30T03:43:46;101644.28;;;5.06;38.61
82311;BME280;72015;51.330;12.316;2024-01-30T03:48:09;101643.38;;;5.15;38.58
82311;BME280;72015;51.330;12.316;2024-01-30T03:52:33;101642.14;;;5.15;38.97
82311;BME280;72015;51.330;12.316;2024-01-30T03:56:57;101640.82;;;5.07;39.63
82311;BME280;72015;51.330;12.316;2024-01-30T04:01:21;101639.69;;;5.04;39.34
82311;BME280;72015;51.330;12.316;2024-01-30T04:05:45;101638.98;;;4.95;39.88
82311;BME280;72015;51.330;12.316;2024-01-30T04:10:09;101636.36;;;4.84;39.95
82311;BME280;72015;51.330;12.316;2024-01-30T04:14:33;101635.17;;;4.74;39.98
82311;BME280;72015;51.330;12.316;2024-01-30T04:18:57;101634.84;;;4.70;39.67
82311;BME280;72015;51.330;12.316;2024-01-30T04:23:21;101635.15;;;4.57;40.44
82311;BME280;72015;51.330;12.316;2024-01-30T04:27:45;101633.62;;;4.44;40.69
82311;BME280;72015;51.330;12.316;2024-01-30T04:32:09;101634.88;;;4.24;41.50
82311;BME280;72015;51.330;12.316;2024-01-30T04:36:33;101634.44;;;3.99;42.12
82311;BME280;72015;51.330;12.316;2024-01-30T04:40:57;101632.50;;;3.82;42.11
82311;BME280;72015;51.330;12.316;2024-01-30T04:45:21;101630.05;;;3.77;41.39
82311;BME280;72015;51.330;12.316;2024-01-30T04:49:45;101628.36;;;3.75;41.12
82311;BME280;72015;51.330;12.316;2024-01-30T04:54:09;101627.69;;;3.74;40.82
82311;BME280;72015;51.330;12.316;2024-01-30T04:58:33;101626.14;;;3.85;39.85
82311;BME280;72015;51.330;12.316;2024-01-30T05:02:57;101624.41;;;4.01;39.32
82311;BME280;72015;51.330;12.316;2024-01-30T05:07:21;101623.97;;;4.13;39.21
82311;BME280;72015;51.330;12.316;2024-01-30T05:11:45;101624.73;;;4.17;39.78
82311;BME280;72015;51.330;12.316;2024-01-30T05:16:09;101625.12;;;4.12;39.96
82311;BME280;72015;51.330;12.316;2024-01-30T05:20:33;101623.64;;;4.13;39.60
82311;BME280;72015;51.330;12.316;2024-01-30T05:24:57;101624.50;;;4.18;39.14
82311;BME280;72015;51.330;12.316;2024-01-30T05:29:21;101627.36;;;4.16;39.51
82311;BME280;72015;51.330;12.316;2024-01-30T05:33:46;101630.77;;;4.05;40.34
82311;BME280;72015;51.330;12.316;2024-01-30T05:38:09;101631.70;;;3.92;40.47
82311;BME280;72015;51.330;12.316;2024-01-30T05:42:33;101632.06;;;3.78;41.25
82311;BME280;72015;51.330;12.316;2024-01-30T05:46:57;101633.85;;;3.67;40.96
82311;BME280;72015;51.330;12.316;2024-01-30T05:51:21;101635.32;;;3.56;41.18
82311;BME280;72015;51.330;12.316;2024-01-30T05:55:45;101636.25;;;3.51;41.05
82311;BME280;72015;51.330;12.316;2024-01-30T06:00:09;101637.04;;;3.49;40.77
82311;BME280;72015;51.330;12.316;2024-01-30T06:04:33;101636.84;;;3.45;40.82
82311;BME280;72015;51.330;12.316;2024-01-30T06:08:57;101637.25;;;3.51;40.27
82311;BME280;72015;51.330;12.316;2024-01-30T06:13:21;101635.67;;;3.67;39.74
82311;BME280;72015;51.330;12.316;2024-01-30T06:17:45;101634.69;;;3.77;39.74
82311;BME280;72015;51.330;12.316;2024-01-30T06:22:09;101632.19;;;3.88;39.05
82311;BME280;72015;51.330;12.316;2024-01-30T06:26:33;101630.90;;;3.96;39.00
82311;BME280;72015;51.330;12.316;2024-01-30T06:30:57;101630.78;;;4.06;38.76
82311;BME280;72015;51.330;12.316;2024-01-30T06:35:21;101630.47;;;4.08;39.00
82311;BME280;72015;51.330;12.316;2024-01-30T06:39:45;101631.17;;;4.10;38.89
82311;BME280;72015;51.330;12.316;2024-01-30T06:44:09;101630.66;;;4.07;39.19
82311;BME280;72015;51.330;12.316;2024-01-30T06:48:33;101629.88;;;4.02;39.67
82311;BME280;72015;51.330;12.316;2024-01-30T06:52:57;101627.84;;;4.00;39.53
82311;BME280;72015;51.330;12.316;2024-01-30T06:57:21;101626.11;;;4.00;39.38
82311;BME280;72015;51.330;12.316;2024-01-30T07:01:45;101625.25;;;3.98;39.51
82311;BME280;72015;51.330;12.316;2024-01-30T07:06:09;101625.13;;;3.90;40.09
82311;BME280;72015;51.330;12.316;2024-01-30T07:10:33;101627.61;;;3.86;39.39
82311;BME280;72015;51.330;12.316;2024-01-30T07:14:57;101628.63;;;3.88;39.19
82311;BME280;72015;51.330;12.316;2024-01-30T07:19:21;101629.42;;;3.93;38.77
82311;BME280;72015;51.330;12.316;2024-01-30T07:23:45;101630.03;;;4.01;38.53
82311;BME280;72015;51.330;12.316;2024-01-30T07:28:09;101630.15;;;4.07;38.48
82311;BME280;72015;51.330;12.316;2024-01-30T07:32:33;101629.94;;;4.11;38.56
82311;BME280;72015;51.330;12.316;2024-01-30T07:36:57;101629.44;;;4.17;38.21
82311;BME280;72015;51.330;12.316;2024-01-30T07:41:21;101627.61;;;4.17;38.71
82311;BME280;72015;51.330;12.316;2024-01-30T07:45:45;101626.81;;;4.14;38.79
82311;BME280;72015;51.330;12.316;2024-01-30T07:50:09;101625.30;;;4.17;38.34
82311;BME280;72015;51.330;12.316;2024-01-30T07:54:33;101624.73;;;4.25;37.81
82311;BME280;72015;51.330;12.316;2024-01-30T07:58:57;101623.67;;;4.25;38.37
82311;BME280;72015;51.330;12.316;2024-01-30T08:03:21;101622.38;;;4.19;38.69
82311;BME280;72015;51.330;12.316;2024-01-30T08:07:45;101622.09;;;4.10;39.07
82311;BME280;72015;51.330;12.316;2024-01-30T08:12:09;101623.35;;;4.02;39.25
82311;BME280;72015;51.330;12.316;2024-01-30T08:16:33;101623.24;;;3.93;39.50
82311;BME280;72015;51.330;12.316;2024-01-30T08:20:57;101622.96;;;3.88;39.23
82311;BME280;72015;51.330;12.316;2024-01-30T08:25:21;101621.89;;;3.92;38.94
82311;BME280;72015;51.330;12.316;2024-01-30T08:29:45;101622.01;;;3.90;39.27
82311;BME280;72015;51.330;12.316;2024-01-30T08:34:09;101622.61;;;3.95;39.21
82311;BME280;72015;51.330;12.316;2024-01-30T08:38:33;101622.88;;;3.99;39.03
82311;BME280;72015;51.330;12.316;2024-01-30T08:42:57;101622.97;;;4.03;39.13
82311;BME280;72015;51.330;12.316;2024-01-30T08:47:21;101624.25;;;4.05;39.41
82311;BME280;72015;51.330;12.316;2024-01-30T08:51:45;101623.66;;;4.05;39.59
82311;BME280;72015;51.330;12.316;2024-01-30T08:56:09;101622.14;;;3.99;40.03
82311;BME280;72015;51.330;12.316;2024-01-30T09:00:33;101620.70;;;3.98;40.04
82311;BME280;72015;51.330;12.316;2024-01-30T09:04:57;101620.25;;;4.03;39.70
82311;BME280;72015;51.330;12.316;2024-01-30T09:09:21;101618.27;;;4.13;39.43
82311;BME280;72015;51.330;12.316;2024-01-30T09:13:45;101617.77;;;4.19;39.51
82311;BME280;72015;51.330;12.316;2024-01-30T09:18:09;101616.44;;;4.23;40.01
82311;BME280;72015;51.330;12.316;2024-01-30T09:22:33;101615.84;;;4.26;39.96
82311;BME280;72015;51.330;12.316;2024-01-30T09:26:57;101614.53;;;4.29;40.01
82311;BME280;72015;51.330;12.316;2024-01-30T09:31:21;101613.09;;;4.35;40.15
82311;BME280;72015;51.330;12.316;2024-01-30T09:35:45;101612.86;;;4.46;39.72
82311;BME280;72015;51.330;12.316;2024-01-30T09:40:09;101611.67;;;4.56;39.92
82311;BME280;72015;51.330;12.316;2024-01-30T09:44:33;101610.26;;;4.64;40.18
82311;BME280;72015;51.330;12.316;2024-01-30T09:48:57;101609.67;;;4.67;40.61
82311;BME280;72015;51.330;12.316;2024-01-30T09:53:21;101609.51;;;4.75;40.11
82311;BME280;72015;51.330;12.316;2024-01-30T09:57:45;101609.53;;;4.81;40.65
82311;BME280;72015;51.330;12.316;2024-01-30T10:02:09;101610.31;;;4.91;40.00
82311;BME280;72015;51.330;12.316;2024-01-30T10:06:33;101610.51;;;5.04;39.81
82311;BME280;72015;51.330;12.316;2024-01-30T10:10:57;101610.75;;;5.25;39.32
82311;BME280;72015;51.330;12.316;2024-01-30T10:15:21;101609.42;;;5.39;39.68
82311;BME280;72015;51.330;12.316;2024-01-30T10:19:45;101607.81;;;5.62;38.77
82311;BME280;72015;51.330;12.316;2024-01-30T10:24:09;101605.74;;;5.76;39.63
82311;BME280;72015;51.330;12.316;2024-01-30T10:28:33;101603.59;;;5.82;39.65
82311;BME280;72015;51.330;12.316;2024-01-30T10:32:57;101600.57;;;5.96;39.36
82311;BME280;72015;51.330;12.316;2024-01-30T10:37:21;101597.30;;;5.98;40.40
82311;BME280;72015;51.330;12.316;2024-01-30T10:41:45;101594.65;;;5.99;40.43
82311;BME280;72015;51.330;12.316;2024-01-30T10:46:18;101591.67;;;6.04;40.23
82311;BME280;72015;51.330;12.316;2024-01-30T10:50:33;101587.34;;;6.07;40.56
82311;BME280;72015;51.330;12.316;2024-01-30T10:54:57;101583.72;;;6.09;40.82
82311;BME280;72015;51.330;12.316;2024-01-30T10:59:21;101579.78;;;6.17;40.45
82311;BME280;72015;51.330;12.316;2024-01-30T11:03:45;101577.83;;;6.29;40.32
82311;BME280;72015;51.330;12.316;2024-01-30T11:12:33;101569.30;;;6.55;40.21
82311;BME280;72015;51.330;12.316;2024-01-30T11:17:00;101566.53;;;6.67;40.42
82311;BME280;72015;51.330;12.316;2024-01-30T11:21:21;101561.93;;;6.79;40.26
82311;BME280;72015;51.330;12.316;2024-01-30T11:25:45;101559.06;;;6.89;40.47
82311;BME280;72015;51.330;12.316;2024-01-30T11:30:09;101555.88;;;6.94;40.67
82311;BME280;72015;51.330;12.316;2024-01-30T11:34:33;101554.80;;;6.94;41.33
82311;BME280;72015;51.330;12.316;2024-01-30T11:38:57;101553.34;;;6.97;40.91
82311;BME280;72015;51.330;12.316;2024-01-30T11:43:21;101551.42;;;7.05;40.91
82311;BME280;72015;51.330;12.316;2024-01-30T11:47:45;101549.82;;;7.10;41.14
82311;BME280;72015;51.330;12.316;2024-01-30T11:52:09;101547.34;;;7.20;41.07
82311;BME280;72015;51.330;12.316;2024-01-30T11:56:33;101543.01;;;7.42;39.74
82311;BME280;72015;51.330;12.316;2024-01-30T12:00:57;101538.60;;;7.74;39.15
82311;BME280;72015;51.330;12.316;2024-01-30T12:05:21;101534.88;;;8.05;38.71
82311;BME280;72015;51.330;12.316;2024-01-30T12:14:09;101526.73;;;8.56;39.01
82311;BME280;72015;51.330;12.316;2024-01-30T12:18:33;101523.46;;;8.72;39.19
82311;BME280;72015;51.330;12.316;2024-01-30T12:22:57;101522.42;;;8.93;39.01
82311;BME280;72015;51.330;12.316;2024-01-30T12:27:21;101519.44;;;9.17;39.06
82311;BME280;72015;51.330;12.316;2024-01-30T12:31:45;101516.61;;;9.35;39.22
82311;BME280;72015;51.330;12.316;2024-01-30T12:36:09;101513.02;;;9.52;39.05
82311;BME280;72015;51.330;12.316;2024-01-30T12:40:33;101506.69;;;9.77;38.50
82311;BME280;72015;51.330;12.316;2024-01-30T12:44:57;101499.50;;;10.01;38.30
82311;BME280;72015;51.330;12.316;2024-01-30T12:49:21;101492.42;;;10.20;38.56
82311;BME280;72015;51.330;12.316;2024-01-30T12:53:45;101488.58;;;10.32;38.67
82311;BME280;72015;51.330;12.316;2024-01-30T12:58:09;101484.53;;;10.40;39.31
82311;BME280;72015;51.330;12.316;2024-01-30T13:02:33;101481.25;;;10.46;39.18
82311;BME280;72015;51.330;12.316;2024-01-30T13:06:57;101478.20;;;10.54;38.46
82311;BME280;72015;51.330;12.316;2024-01-30T13:11:21;101475.42;;;10.73;37.81
82311;BME280;72015;51.330;12.316;2024-01-30T13:15:45;101472.83;;;10.90;37.21
82311;BME280;72015;51.330;12.316;2024-01-30T13:20:09;101472.00;;;10.94;37.75
82311;BME280;72015;51.330;12.316;2024-01-30T13:24:33;101470.67;;;10.88;38.60
82311;BME280;72015;51.330;12.316;2024-01-30T13:28:57;101470.09;;;10.90;37.51
82311;BME280;72015;51.330;12.316;2024-01-30T13:33:21;101468.70;;;10.85;37.81
82311;BME280;72015;51.330;12.316;2024-01-30T13:37:45;101467.81;;;10.96;37.51
82311;BME280;72015;51.330;12.316;2024-01-30T13:42:09;101463.37;;;10.98;37.73
82311;BME280;72015;51.330;12.316;2024-01-30T13:46:33;101459.42;;;10.87;38.88
82311;BME280;72015;51.330;12.316;2024-01-30T13:50:57;101455.28;;;10.68;39.80
82311;BME280;72015;51.330;12.316;2024-01-30T13:55:21;101451.28;;;10.53;39.79
82311;BME280;72015;51.330;12.316;2024-01-30T13:59:45;101448.22;;;10.48;39.23
82311;BME280;72015;51.330;12.316;2024-01-30T14:04:09;101446.39;;;10.34;40.48
82311;BME280;72015;51.330;12.316;2024-01-30T14:08:33;101445.45;;;10.23;40.13
82311;BME280;72015;51.330;12.316;2024-01-30T14:12:57;101445.17;;;10.21;39.90
82311;BME280;72015;51.330;12.316;2024-01-30T14:17:21;101444.33;;;10.05;41.06
82311;BME280;72015;51.330;12.316;2024-01-30T14:21:45;101443.72;;;9.82;42.05
82311;BME280;72015;51.330;12.316;2024-01-30T14:26:09;101444.16;;;9.74;40.98
82311;BME280;72015;51.330;12.316;2024-01-30T14:30:33;101443.98;;;9.63;42.23
82311;BME280;72015;51.330;12.316;2024-01-30T14:34:57;101444.02;;;9.53;41.88
82311;BME280;72015;51.330;12.316;2024-01-30T14:39:21;101444.86;;;9.46;42.57
82311;BME280;72015;51.330;12.316;2024-01-30T14:43:45;101444.62;;;9.40;42.32
82311;BME280;72015;51.330;12.316;2024-01-30T14:48:09;101445.79;;;9.28;43.47
82311;BME280;72015;51.330;12.316;2024-01-30T14:52:33;101446.56;;;9.18;43.53
82311;BME280;72015;51.330;12.316;2024-01-30T14:56:57;101446.56;;;9.18;42.84
82311;BME280;72015;51.330;12.316;2024-01-30T15:01:21;101444.72;;;9.22;42.76
82311;BME280;72015;51.330;12.316;2024-01-30T15:05:45;101446.47;;;9.18;43.40
82311;BME280;72015;51.330;12.316;2024-01-30T15:10:09;101446.31;;;9.15;43.51
82311;BME280;72015;51.330;12.316;2024-01-30T15:14:33;101445.39;;;9.16;43.00
82311;BME280;72015;51.330;12.316;2024-01-30T15:18:57;101444.31;;;9.26;42.39
82311;BME280;72015;51.330;12.316;2024-01-30T15:23:21;101444.21;;;9.33;42.56
82311;BME280;72015;51.330;12.316;2024-01-30T15:27:45;101443.70;;;9.42;42.33
82311;BME280;72015;51.330;12.316;2024-01-30T15:32:09;101442.78;;;9.46;42.38
82311;BME280;72015;51.330;12.316;2024-01-30T15:36:33;101443.93;;;9.53;42.15
82311;BME280;72015;51.330;12.316;2024-01-30T15:40:57;101446.67;;;9.57;42.13
82311;BME280;72015;51.330;12.316;2024-01-30T15:45:21;101448.41;;;9.62;42.53
82311;BME280;72015;51.330;12.316;2024-01-30T15:49:45;101448.66;;;9.59;42.68
82311;BME280;72015;51.330;12.316;2024-01-30T15:54:09;101449.10;;;9.53;43.26
82311;BME280;72015;51.330;12.316;2024-01-30T15:58:33;101452.19;;;9.46;43.44
82311;BME280;72015;51.330;12.316;2024-01-30T16:02:57;101454.86;;;9.36;44.03
82311;BME280;72015;51.330;12.316;2024-01-30T16:07:21;101457.11;;;9.32;43.60
82311;BME280;72015;51.330;12.316;2024-01-30T16:11:45;101460.11;;;9.34;42.93
82311;BME280;72015;51.330;12.316;2024-01-30T16:16:09;101464.18;;;9.37;42.94
82311;BME280;72015;51.330;12.316;2024-01-30T16:20:33;101466.93;;;9.33;43.16
82311;BME280;72015;51.330;12.316;2024-01-30T16:24:57;101471.59;;;9.35;43.25
82311;BME280;72015;51.330;12.316;2024-01-30T16:29:21;101474.67;;;9.33;43.42
82311;BME280;72015;51.330;12.316;2024-01-30T16:33:47;101478.42;;;9.25;43.90
82311;BME280;72015;51.330;12.316;2024-01-30T16:38:09;101482.17;;;9.18;43.52
82311;BME280;72015;51.330;12.316;2024-01-30T16:42:33;101486.66;;;9.20;43.03
82311;BME280;72015;51.330;12.316;2024-01-30T16:46:57;101491.82;;;9.21;43.17
82311;BME280;72015;51.330;12.316;2024-01-30T16:51:21;101496.47;;;9.21;43.10
82311;BME280;72015;51.330;12.316;2024-01-30T16:55:45;101502.29;;;9.16;43.77
82311;BME280;72015;51.330;12.316;2024-01-30T17:00:09;101507.03;;;9.10;43.79
82311;BME280;72015;51.330;12.316;2024-01-30T17:04:33;101510.19;;;9.07;43.62
82311;BME280;72015;51.330;12.316;2024-01-30T17:08:57;101512.90;;;9.01;43.81
82311;BME280;72015;51.330;12.316;2024-01-30T17:13:21;101514.64;;;8.99;43.77
82311;BME280;72015;51.330;12.316;2024-01-30T17:17:45;101517.43;;;8.93;44.29
82311;BME280;72015;51.330;12.316;2024-01-30T17:22:09;101521.75;;;8.92;43.86
82311;BME280;72015;51.330;12.316;2024-01-30T17:26:33;101524.41;;;8.91;43.51
82311;BME280;72015;51.330;12.316;2024-01-30T17:30:57;101526.70;;;8.95;42.92
82311;BME280;72015;51.330;12.316;2024-01-30T17:35:21;101528.24;;;8.94;43.44
82311;BME280;72015;51.330;12.316;2024-01-30T17:39:45;101530.72;;;8.82;44.31
82311;BME280;72015;51.330;12.316;2024-01-30T17:44:09;101533.60;;;8.73;44.04
82311;BME280;72015;51.330;12.316;2024-01-30T17:48:33;101537.58;;;8.69;43.70
82311;BME280;72015;51.330;12.316;2024-01-30T17:55:51;101560.26;;;8.01;43.72
82311;BME280;72015;51.330;12.316;2024-01-30T17:59:57;101558.51;;;8.16;42.96
82311;BME280;72015;51.330;12.316;2024-01-30T18:04:03;101557.11;;;8.34;42.47
82311;BME280;72015;51.330;12.316;2024-01-30T18:08:09;101558.29;;;8.52;42.02
82311;BME280;72015;51.330;12.316;2024-01-30T18:12:15;101560.30;;;8.77;40.77
82311;BME280;72015;51.330;12.316;2024-01-30T18:16:21;101561.42;;;8.92;41.64
82311;BME280;72015;51.330;12.316;2024-01-30T18:20:27;101563.47;;;9.01;41.57
82311;BME280;72015;51.330;12.316;2024-01-30T18:24:33;101566.27;;;9.07;41.89
82311;BME280;72015;51.330;12.316;2024-01-30T18:28:39;101568.19;;;9.17;41.20
82311;BME280;72015;51.330;12.316;2024-01-30T18:32:55;101570.95;;;9.30;41.00
82311;BME280;72015;51.330;12.316;2024-01-30T18:49:09;101589.31;;;9.99;38.72
82311;BME280;72015;51.330;12.316;2024-01-30T18:53:15;101592.46;;;10.08;39.30
82311;BME280;72015;51.330;12.316;2024-01-30T18:57:21;101596.46;;;10.04;40.38
82311;BME280;72015;51.330;12.316;2024-01-30T19:01:27;101599.63;;;9.87;41.58
82311;BME280;72015;51.330;12.316;2024-01-30T19:05:33;101604.38;;;9.69;42.08
82311;BME280;72015;51.330;12.316;2024-01-30T19:09:39;101608.25;;;9.48;42.59
82311;BME280;72015;51.330;12.316;2024-01-30T19:13:45;101611.39;;;9.30;43.42
82311;BME280;72015;51.330;12.316;2024-01-30T19:17:51;101613.94;;;9.14;43.38
82311;BME280;72015;51.330;12.316;2024-01-30T19:21:57;101616.29;;;9.02;43.44
82311;BME280;72015;51.330;12.316;2024-01-30T19:26:03;101619.85;;;8.96;42.94
82311;BME280;72015;51.330;12.316;2024-01-30T19:30:10;101622.72;;;8.94;42.77
82311;BME280;72015;51.330;12.316;2024-01-30T19:34:15;101625.05;;;8.93;42.48
82311;BME280;72015;51.330;12.316;2024-01-30T19:38:21;101628.87;;;8.91;42.61
82311;BME280;72015;51.330;12.316;2024-01-30T19:42:27;101633.33;;;8.84;42.80
82311;BME280;72015;51.330;12.316;2024-01-30T19:46:33;101638.79;;;8.78;42.93
82311;BME280;72015;51.330;12.316;2024-01-30T19:50:39;101643.91;;;8.69;43.49
82311;BME280;72015;51.330;12.316;2024-01-30T19:54:45;101648.44;;;8.59;43.70
82311;BME280;72015;51.330;12.316;2024-01-30T19:58:51;101651.72;;;8.51;43.83
82311;BME280;72015;51.330;12.316;2024-01-30T20:02:57;101654.63;;;8.43;43.77
82311;BME280;72015;51.330;12.316;2024-01-30T20:07:04;101658.06;;;8.33;44.66
82311;BME280;72015;51.330;12.316;2024-01-30T20:15:16;101663.15;;;8.24;44.54
82311;BME280;72015;51.330;12.316;2024-01-30T20:19:21;101666.58;;;8.26;44.17
82311;BME280;72015;51.330;12.316;2024-01-30T20:23:27;101668.41;;;8.26;44.18
82311;BME280;72015;51.330;12.316;2024-01-30T20:27:33;101670.62;;;8.22;45.04
82311;BME280;72015;51.330;12.316;2024-01-30T20:31:39;101673.63;;;8.24;44.46
82311;BME280;72015;51.330;12.316;2024-01-30T20:35:45;101677.51;;;8.22;44.74
82311;BME280;72015;51.330;12.316;2024-01-30T20:39:52;101680.47;;;8.28;44.38
82311;BME280;72015;51.330;12.316;2024-01-30T20:43:58;101683.83;;;8.35;44.47
82311;BME280;72015;51.330;12.316;2024-01-30T20:48:04;101687.03;;;8.42;44.52
82311;BME280;72015;51.330;12.316;2024-01-30T20:52:10;101689.29;;;8.45;44.87
82311;BME280;72015;51.330;12.316;2024-01-30T20:56:16;101690.81;;;8.48;44.83
82311;BME280;72015;51.330;12.316;2024-01-30T21:00:22;101692.13;;;8.54;44.55
82311;BME280;72015;51.330;12.316;2024-01-30T21:04:28;101695.14;;;8.57;44.93
82311;BME280;72015;51.330;12.316;2024-01-30T21:08:34;101698.07;;;8.61;44.70
82311;BME280;72015;51.330;12.316;2024-01-30T21:12:40;101701.83;;;8.64;44.97
82311;BME280;72015;51.330;12.316;2024-01-30T21:16:46;101703.26;;;8.67;45.16
82311;BME280;72015;51.330;12.316;2024-01-30T21:20:52;101704.08;;;8.65;45.70
82311;BME280;72015;51.330;12.316;2024-01-30T21:24:58;101703.80;;;8.59;45.79
82311;BME280;72015;51.330;12.316;2024-01-30T21:29:04;101703.74;;;8.50;46.46
82311;BME280;72015;51.330;12.316;2024-01-30T21:33:10;101702.70;;;8.36;47.61
82311;BME280;72015;51.330;12.316;2024-01-30T21:37:16;101701.25;;;8.20;47.46
82311;BME280;72015;51.330;12.316;2024-01-30T21:41:22;101699.80;;;8.15;46.52
82311;BME280;72015;51.330;12.316;2024-01-30T21:45:28;101698.44;;;8.22;45.64
82311;BME280;72015;51.330;12.316;2024-01-30T21:49:34;101696.91;;;8.27;45.93
82311;BME280;72015;51.330;12.316;2024-01-30T21:53:40;101695.20;;;8.22;46.61
82311;BME280;72015;51.330;12.316;2024-01-30T21:57:46;101694.59;;;8.08;47.72
82311;BME280;72015;51.330;12.316;2024-01-30T22:01:52;101693.82;;;7.94;47.77
82311;BME280;72015;51.330;12.316;2024-01-30T22:05:58;101693.64;;;7.81;48.25
82311;BME280;72015;51.330;12.316;2024-01-30T22:10:04;101694.34;;;7.68;48.42
82311;BME280;72015;51.330;12.316;2024-01-30T22:14:10;101693.75;;;7.58;48.61
82311;BME280;72015;51.330;12.316;2024-01-30T22:18:16;101694.30;;;7.46;48.37
82311;BME280;72015;51.330;12.316;2024-01-30T22:22:22;101694.98;;;7.40;47.77
82311;BME280;72015;51.330;12.316;2024-01-30T22:26:28;101695.36;;;7.37;48.02
82311;BME280;72015;51.330;12.316;2024-01-30T22:30:34;101695.87;;;7.27;48.18
82311;BME280;72015;51.330;12.316;2024-01-30T22:34:40;101697.36;;;7.26;47.64
82311;BME280;72015;51.330;12.316;2024-01-30T22:38:46;101700.30;;;7.15;48.90
82311;BME280;72015;51.330;12.316;2024-01-30T22:42:52;101701.90;;;7.10;48.40
82311;BME280;72015;51.330;12.316;2024-01-30T22:46:58;101704.49;;;7.10;47.66
82311;BME280;72015;51.330;12.316;2024-01-30T22:51:04;101707.86;;;7.09;48.18
82311;BME280;72015;51.330;12.316;2024-01-30T22:55:10;101711.10;;;7.02;48.67
82311;BME280;72015;51.330;12.316;2024-01-30T22:59:16;101714.18;;;7.04;47.60
82311;BME280;72015;51.330;12.316;2024-01-30T23:03:22;101718.31;;;7.02;48.04
82311;BME280;72015;51.330;12.316;2024-01-30T23:07:28;101723.52;;;7.01;47.86